sensor_id;sensor_type;location;lat;lon;timestamp;P1;durP1;ratioP1;P2;durP2;ratioP2
18435;SDS011;9346;52.006;4.720;2023-10-31T00:00:09;14.23;;;6.23;;
18435;SDS011;9346;52.006;4.720;2023-10-31T00:02:37;13.43;;;6.37;;
18435;SDS011;9346;52.006;4.720;2023-10-31T00:05:05;12.93;;;5.63;;
18435;SDS011;9346;52.006;4.720;2023-10-31T00:07:33;12.27;;;6.13;;
18435;SDS011;9346;52.006;4.720;2023-10-31T00:10:00;13.10;;;6.43;;
18435;SDS011;9346;52.006;4.720;2023-10-31T00:12:28;9.83;;;4.97;;
18435;SDS011;9346;52.006;4.720;2023-10-31T00:14:55;8.93;;;4.43;;
18435;SDS011;9346;52.006;4.720;2023-10-31T00:17:24;8.33;;;3.77;;
18435;SDS011;9346;52.006;4.720;2023-10-31T00:19:51;8.57;;;4.30;;
18435;SDS011;9346;52.006;4.720;2023-10-31T00:22:18;6.13;;;3.87;;
18435;SDS011;9346;52.006;4.720;2023-10-31T00:24:46;8.20;;;3.70;;
18435;SDS011;9346;52.006;4.720;2023-10-31T00:27:13;12.47;;;4.07;;
18435;SDS011;9346;52.006;4.720;2023-10-31T00:29:40;13.50;;;5.43;;
18435;SDS011;9346;52.006;4.720;2023-10-31T00:32:07;9.43;;;4.87;;
18435;SDS011;9346;52.006;4.720;2023-10-31T00:34:37;11.87;;;4.53;;
18435;SDS011;9346;52.006;4.720;2023-10-31T00:37:04;12.13;;;5.07;;
18435;SDS011;9346;52.006;4.720;2023-10-31T00:39:31;11.87;;;5.53;;
18435;SDS011;9346;52.006;4.720;2023-10-31T00:41:59;14.30;;;7.13;;
18435;SDS011;9346;52.006;4.720;2023-10-31T00:44:26;15.13;;;6.43;;
18435;SDS011;9346;52.006;4.720;2023-10-31T00:46:53;13.00;;;7.53;;
18435;SDS011;9346;52.006;4.720;2023-10-31T00:49:21;12.03;;;6.03;;
18435;SDS011;9346;52.006;4.720;2023-10-31T00:51:51;10.77;;;6.70;;
18435;SDS011;9346;52.006;4.720;2023-10-31T00:54:18;9.63;;;7.13;;
18435;SDS011;9346;52.006;4.720;2023-10-31T00:56:46;13.53;;;6.57;;
18435;SDS011;9346;52.006;4.720;2023-10-31T00:59:13;18.80;;;6.60;;
18435;SDS011;9346;52.006;4.720;2023-10-31T01:01:40;17.60;;;6.70;;
18435;SDS011;9346;52.006;4.720;2023-10-31T01:04:08;10.73;;;5.90;;
18435;SDS011;9346;52.006;4.720;2023-10-31T01:06:39;8.87;;;5.13;;
18435;SDS011;9346;52.006;4.720;2023-10-31T01:09:10;9.40;;;4.37;;
18435;SDS011;9346;52.006;4.720;2023-10-31T01:11:38;8.43;;;5.17;;
18435;SDS011;9346;52.006;4.720;2023-10-31T01:14:05;11.70;;;5.77;;
18435;SDS011;9346;52.006;4.720;2023-10-31T01:16:33;7.70;;;4.83;;
18435;SDS011;9346;52.006;4.720;2023-10-31T01:19:00;6.87;;;4.37;;
18435;SDS011;9346;52.006;4.720;2023-10-31T01:21:28;6.90;;;4.10;;
18435;SDS011;9346;52.006;4.720;2023-10-31T01:23:56;10.60;;;5.07;;
18435;SDS011;9346;52.006;4.720;2023-10-31T01:26:25;8.20;;;4.70;;
18435;SDS011;9346;52.006;4.720;2023-10-31T01:28:52;11.67;;;4.60;;
18435;SDS011;9346;52.006;4.720;2023-10-31T01:31:19;7.80;;;4.97;;
18435;SDS011;9346;52.006;4.720;2023-10-31T01:33:47;7.63;;;4.60;;
18435;SDS011;9346;52.006;4.720;2023-10-31T01:36:14;9.47;;;4.73;;
18435;SDS011;9346;52.006;4.720;2023-10-31T01:38:43;6.87;;;4.67;;
18435;SDS011;9346;52.006;4.720;2023-10-31T01:41:11;11.83;;;4.87;;
18435;SDS011;9346;52.006;4.720;2023-10-31T01:43:40;7.27;;;5.13;;
18435;SDS011;9346;52.006;4.720;2023-10-31T01:46:07;11.40;;;4.70;;
18435;SDS011;9346;52.006;4.720;2023-10-31T01:48:35;9.40;;;5.27;;
18435;SDS011;9346;52.006;4.720;2023-10-31T01:51:03;10.67;;;5.37;;
18435;SDS011;9346;52.006;4.720;2023-10-31T01:53:31;8.47;;;4.77;;
18435;SDS011;9346;52.006;4.720;2023-10-31T01:55:59;12.10;;;6.00;;
18435;SDS011;9346;52.006;4.720;2023-10-31T01:58:29;12.83;;;6.80;;
18435;SDS011;9346;52.006;4.720;2023-10-31T02:01:02;8.37;;;5.70;;
18435;SDS011;9346;52.006;4.720;2023-10-31T02:03:29;8.50;;;5.13;;
18435;SDS011;9346;52.006;4.720;2023-10-31T02:05:58;9.87;;;5.17;;
18435;SDS011;9346;52.006;4.720;2023-10-31T02:08:26;6.73;;;4.30;;
18435;SDS011;9346;52.006;4.720;2023-10-31T02:10:53;7.60;;;3.87;;
18435;SDS011;9346;52.006;4.720;2023-10-31T02:13:20;9.23;;;3.83;;
18435;SDS011;9346;52.006;4.720;2023-10-31T02:15:48;6.50;;;3.80;;
18435;SDS011;9346;52.006;4.720;2023-10-31T02:18:17;7.87;;;4.00;;
18435;SDS011;9346;52.006;4.720;2023-10-31T02:20:45;5.13;;;3.30;;
18435;SDS011;9346;52.006;4.720;2023-10-31T02:23:17;6.63;;;3.57;;
18435;SDS011;9346;52.006;4.720;2023-10-31T02:25:44;4.57;;;2.90;;
18435;SDS011;9346;52.006;4.720;2023-10-31T02:28:12;4.70;;;2.80;;
18435;SDS011;9346;52.006;4.720;2023-10-31T02:30:40;5.17;;;2.53;;
18435;SDS011;9346;52.006;4.720;2023-10-31T02:33:07;5.97;;;1.90;;
18435;SDS011;9346;52.006;4.720;2023-10-31T02:35:35;5.10;;;1.87;;
18435;SDS011;9346;52.006;4.720;2023-10-31T02:38:02;3.33;;;1.60;;
18435;SDS011;9346;52.006;4.720;2023-10-31T02:40:32;1.50;;;1.30;;
18435;SDS011;9346;52.006;4.720;2023-10-31T02:42:59;3.83;;;2.30;;
18435;SDS011;9346;52.006;4.720;2023-10-31T02:45:26;2.67;;;1.93;;
18435;SDS011;9346;52.006;4.720;2023-10-31T02:47:54;3.90;;;2.30;;
18435;SDS011;9346;52.006;4.720;2023-10-31T02:50:21;4.57;;;2.50;;
18435;SDS011;9346;52.006;4.720;2023-10-31T02:52:49;6.10;;;2.47;;
18435;SDS011;9346;52.006;4.720;2023-10-31T02:55:16;3.50;;;2.60;;
18435;SDS011;9346;52.006;4.720;2023-10-31T02:57:45;4.30;;;3.10;;
18435;SDS011;9346;52.006;4.720;2023-10-31T03:00:12;4.80;;;2.87;;
18435;SDS011;9346;52.006;4.720;2023-10-31T03:02:41;5.97;;;2.80;;
18435;SDS011;9346;52.006;4.720;2023-10-31T03:05:08;3.87;;;2.47;;
18435;SDS011;9346;52.006;4.720;2023-10-31T03:07:36;5.10;;;1.90;;
18435;SDS011;9346;52.006;4.720;2023-10-31T03:10:05;3.50;;;1.70;;
18435;SDS011;9346;52.006;4.720;2023-10-31T03:12:33;4.70;;;1.80;;
18435;SDS011;9346;52.006;4.720;2023-10-31T03:15:03;3.90;;;2.00;;
18435;SDS011;9346;52.006;4.720;2023-10-31T03:17:31;4.13;;;1.67;;
18435;SDS011;9346;52.006;4.720;2023-10-31T03:19:59;3.77;;;2.33;;
18435;SDS011;9346;52.006;4.720;2023-10-31T03:22:27;4.83;;;3.03;;
18435;SDS011;9346;52.006;4.720;2023-10-31T03:24:55;4.87;;;2.97;;
18435;SDS011;9346;52.006;4.720;2023-10-31T03:27:22;7.50;;;3.50;;
18435;SDS011;9346;52.006;4.720;2023-10-31T03:29:50;4.93;;;2.83;;
18435;SDS011;9346;52.006;4.720;2023-10-31T03:32:20;3.90;;;2.90;;
18435;SDS011;9346;52.006;4.720;2023-10-31T03:34:48;5.03;;;2.20;;
18435;SDS011;9346;52.006;4.720;2023-10-31T03:37:15;5.03;;;1.80;;
18435;SDS011;9346;52.006;4.720;2023-10-31T03:39:44;3.30;;;1.83;;
18435;SDS011;9346;52.006;4.720;2023-10-31T03:42:12;2.73;;;1.60;;
18435;SDS011;9346;52.006;4.720;2023-10-31T03:44:41;1.73;;;1.47;;
18435;SDS011;9346;52.006;4.720;2023-10-31T03:47:08;1.70;;;1.10;;
18435;SDS011;9346;52.006;4.720;2023-10-31T03:49:39;1.73;;;1.10;;
18435;SDS011;9346;52.006;4.720;2023-10-31T03:52:07;1.10;;;0.90;;
18435;SDS011;9346;52.006;4.720;2023-10-31T03:54:35;0.97;;;0.87;;
18435;SDS011;9346;52.006;4.720;2023-10-31T03:57:03;1.33;;;0.80;;
18435;SDS011;9346;52.006;4.720;2023-10-31T03:59:31;1.27;;;0.80;;
18435;SDS011;9346;52.006;4.720;2023-10-31T04:01:59;2.07;;;1.00;;
18435;SDS011;9346;52.006;4.720;2023-10-31T04:04:27;1.10;;;0.70;;
18435;SDS011;9346;52.006;4.720;2023-10-31T04:06:56;2.67;;;0.60;;
18435;SDS011;9346;52.006;4.720;2023-10-31T04:09:24;1.50;;;0.50;;
18435;SDS011;9346;52.006;4.720;2023-10-31T04:11:52;3.50;;;0.70;;
18435;SDS011;9346;52.006;4.720;2023-10-31T04:14:20;0.90;;;0.40;;
18435;SDS011;9346;52.006;4.720;2023-10-31T04:16:48;0.67;;;0.67;;
18435;SDS011;9346;52.006;4.720;2023-10-31T04:19:16;1.37;;;0.80;;
18435;SDS011;9346;52.006;4.720;2023-10-31T04:21:43;0.70;;;0.70;;
18435;SDS011;9346;52.006;4.720;2023-10-31T04:24:13;1.40;;;0.60;;
18435;SDS011;9346;52.006;4.720;2023-10-31T04:26:40;2.40;;;1.07;;
18435;SDS011;9346;52.006;4.720;2023-10-31T04:29:08;1.73;;;0.80;;
18435;SDS011;9346;52.006;4.720;2023-10-31T04:31:36;2.47;;;0.60;;
18435;SDS011;9346;52.006;4.720;2023-10-31T04:34:04;4.27;;;0.90;;
18435;SDS011;9346;52.006;4.720;2023-10-31T04:36:31;1.47;;;0.83;;
18435;SDS011;9346;52.006;4.720;2023-10-31T04:38:58;0.90;;;0.60;;
18435;SDS011;9346;52.006;4.720;2023-10-31T04:41:28;2.83;;;0.80;;
18435;SDS011;9346;52.006;4.720;2023-10-31T04:43:56;1.87;;;0.60;;
18435;SDS011;9346;52.006;4.720;2023-10-31T04:46:24;1.27;;;0.77;;
18435;SDS011;9346;52.006;4.720;2023-10-31T04:48:52;2.80;;;0.90;;
18435;SDS011;9346;52.006;4.720;2023-10-31T04:51:20;1.63;;;0.83;;
18435;SDS011;9346;52.006;4.720;2023-10-31T04:53:47;3.00;;;1.13;;
18435;SDS011;9346;52.006;4.720;2023-10-31T04:56:15;4.83;;;1.77;;
18435;SDS011;9346;52.006;4.720;2023-10-31T04:58:46;4.63;;;1.60;;
18435;SDS011;9346;52.006;4.720;2023-10-31T05:01:13;3.57;;;2.00;;
18435;SDS011;9346;52.006;4.720;2023-10-31T05:03:43;4.90;;;2.40;;
18435;SDS011;9346;52.006;4.720;2023-10-31T05:06:10;4.43;;;2.10;;
18435;SDS011;9346;52.006;4.720;2023-10-31T05:08:38;4.80;;;2.33;;
18435;SDS011;9346;52.006;4.720;2023-10-31T05:11:06;4.73;;;2.23;;
18435;SDS011;9346;52.006;4.720;2023-10-31T05:13:34;3.50;;;2.00;;
18435;SDS011;9346;52.006;4.720;2023-10-31T05:16:05;2.53;;;1.80;;
18435;SDS011;9346;52.006;4.720;2023-10-31T05:18:33;3.53;;;1.90;;
18435;SDS011;9346;52.006;4.720;2023-10-31T05:21:03;2.00;;;1.67;;
18435;SDS011;9346;52.006;4.720;2023-10-31T05:23:31;2.03;;;1.33;;
18435;SDS011;9346;52.006;4.720;2023-10-31T05:25:59;2.23;;;1.20;;
18435;SDS011;9346;52.006;4.720;2023-10-31T05:28:28;4.07;;;1.23;;
18435;SDS011;9346;52.006;4.720;2023-10-31T05:30:56;3.23;;;1.20;;
18435;SDS011;9346;52.006;4.720;2023-10-31T05:33:25;2.10;;;1.37;;
18435;SDS011;9346;52.006;4.720;2023-10-31T05:35:52;3.50;;;1.10;;
18435;SDS011;9346;52.006;4.720;2023-10-31T05:38:20;1.97;;;1.10;;
18435;SDS011;9346;52.006;4.720;2023-10-31T05:40:48;1.83;;;1.10;;
18435;SDS011;9346;52.006;4.720;2023-10-31T05:43:15;1.43;;;0.53;;
18435;SDS011;9346;52.006;4.720;2023-10-31T05:45:42;0.67;;;0.67;;
18435;SDS011;9346;52.006;4.720;2023-10-31T05:48:10;0.67;;;0.67;;
18435;SDS011;9346;52.006;4.720;2023-10-31T05:50:42;3.93;;;0.70;;
18435;SDS011;9346;52.006;4.720;2023-10-31T05:53:09;0.60;;;0.50;;
18435;SDS011;9346;52.006;4.720;2023-10-31T05:55:39;0.67;;;0.40;;
18435;SDS011;9346;52.006;4.720;2023-10-31T05:58:07;2.67;;;0.60;;
18435;SDS011;9346;52.006;4.720;2023-10-31T06:00:35;2.83;;;1.10;;
18435;SDS011;9346;52.006;4.720;2023-10-31T06:03:04;1.00;;;0.80;;
18435;SDS011;9346;52.006;4.720;2023-10-31T06:05:32;0.80;;;0.40;;
18435;SDS011;9346;52.006;4.720;2023-10-31T06:08:03;1.80;;;0.80;;
18435;SDS011;9346;52.006;4.720;2023-10-31T06:10:31;2.03;;;0.80;;
18435;SDS011;9346;52.006;4.720;2023-10-31T06:12:58;1.90;;;1.00;;
18435;SDS011;9346;52.006;4.720;2023-10-31T06:15:26;3.00;;;0.77;;
18435;SDS011;9346;52.006;4.720;2023-10-31T06:17:54;2.03;;;0.83;;
18435;SDS011;9346;52.006;4.720;2023-10-31T06:20:22;2.40;;;0.90;;
18435;SDS011;9346;52.006;4.720;2023-10-31T06:22:49;1.30;;;0.83;;
18435;SDS011;9346;52.006;4.720;2023-10-31T06:25:19;0.80;;;0.80;;
18435;SDS011;9346;52.006;4.720;2023-10-31T06:27:46;1.53;;;0.57;;
18435;SDS011;9346;52.006;4.720;2023-10-31T06:30:14;0.60;;;0.60;;
18435;SDS011;9346;52.006;4.720;2023-10-31T06:32:42;2.23;;;1.17;;
18435;SDS011;9346;52.006;4.720;2023-10-31T06:35:10;2.97;;;0.80;;
18435;SDS011;9346;52.006;4.720;2023-10-31T06:37:38;1.63;;;0.60;;
18435;SDS011;9346;52.006;4.720;2023-10-31T06:40:06;2.70;;;0.60;;
18435;SDS011;9346;52.006;4.720;2023-10-31T06:42:37;0.80;;;0.70;;
18435;SDS011;9346;52.006;4.720;2023-10-31T06:45:04;0.93;;;0.60;;
18435;SDS011;9346;52.006;4.720;2023-10-31T06:47:33;3.13;;;0.73;;
18435;SDS011;9346;52.006;4.720;2023-10-31T06:50:00;3.20;;;0.73;;
18435;SDS011;9346;52.006;4.720;2023-10-31T06:52:28;0.67;;;0.60;;
18435;SDS011;9346;52.006;4.720;2023-10-31T06:54:55;1.27;;;0.73;;
18435;SDS011;9346;52.006;4.720;2023-10-31T06:57:23;0.83;;;0.60;;
18435;SDS011;9346;52.006;4.720;2023-10-31T06:59:53;0.57;;;0.57;;
18435;SDS011;9346;52.006;4.720;2023-10-31T07:02:21;5.60;;;0.87;;
18435;SDS011;9346;52.006;4.720;2023-10-31T07:04:51;1.03;;;0.70;;
18435;SDS011;9346;52.006;4.720;2023-10-31T07:07:18;0.53;;;0.53;;
18435;SDS011;9346;52.006;4.720;2023-10-31T07:09:44;3.23;;;1.00;;
18435;SDS011;9346;52.006;4.720;2023-10-31T07:12:11;1.20;;;0.70;;
18435;SDS011;9346;52.006;4.720;2023-10-31T07:14:39;1.50;;;1.40;;
18435;SDS011;9346;52.006;4.720;2023-10-31T07:17:08;2.57;;;1.00;;
18435;SDS011;9346;52.006;4.720;2023-10-31T07:19:36;1.37;;;1.27;;
18435;SDS011;9346;52.006;4.720;2023-10-31T07:22:03;1.93;;;1.53;;
18435;SDS011;9346;52.006;4.720;2023-10-31T07:24:31;3.93;;;1.80;;
18435;SDS011;9346;52.006;4.720;2023-10-31T07:26:59;1.80;;;1.37;;
18435;SDS011;9346;52.006;4.720;2023-10-31T07:29:26;4.40;;;1.30;;
18435;SDS011;9346;52.006;4.720;2023-10-31T07:31:54;1.97;;;1.13;;
18435;SDS011;9346;52.006;4.720;2023-10-31T07:34:23;3.23;;;1.83;;
18435;SDS011;9346;52.006;4.720;2023-10-31T07:36:51;3.23;;;1.33;;
18435;SDS011;9346;52.006;4.720;2023-10-31T07:39:18;2.83;;;1.27;;
18435;SDS011;9346;52.006;4.720;2023-10-31T07:41:46;5.60;;;1.77;;
18435;SDS011;9346;52.006;4.720;2023-10-31T07:44:12;1.67;;;1.27;;
18435;SDS011;9346;52.006;4.720;2023-10-31T07:46:40;1.70;;;1.50;;
18435;SDS011;9346;52.006;4.720;2023-10-31T07:49:18;6.53;;;1.90;;
18435;SDS011;9346;52.006;4.720;2023-10-31T07:51:48;4.00;;;1.97;;
18435;SDS011;9346;52.006;4.720;2023-10-31T07:54:15;3.10;;;1.60;;
18435;SDS011;9346;52.006;4.720;2023-10-31T07:56:44;4.83;;;2.17;;
18435;SDS011;9346;52.006;4.720;2023-10-31T07:59:12;4.20;;;2.03;;
18435;SDS011;9346;52.006;4.720;2023-10-31T08:01:40;4.07;;;2.17;;
18435;SDS011;9346;52.006;4.720;2023-10-31T08:04:10;2.80;;;1.80;;
18435;SDS011;9346;52.006;4.720;2023-10-31T08:06:40;3.00;;;2.10;;
18435;SDS011;9346;52.006;4.720;2023-10-31T08:09:10;6.27;;;2.53;;
18435;SDS011;9346;52.006;4.720;2023-10-31T08:11:39;5.77;;;2.30;;
18435;SDS011;9346;52.006;4.720;2023-10-31T08:14:07;5.37;;;3.83;;
18435;SDS011;9346;52.006;4.720;2023-10-31T08:16:34;4.07;;;3.00;;
18435;SDS011;9346;52.006;4.720;2023-10-31T08:19:02;5.00;;;2.67;;
18435;SDS011;9346;52.006;4.720;2023-10-31T08:21:29;12.53;;;3.37;;
18435;SDS011;9346;52.006;4.720;2023-10-31T08:24:00;6.17;;;3.27;;
18435;SDS011;9346;52.006;4.720;2023-10-31T08:26:30;4.70;;;3.37;;
18435;SDS011;9346;52.006;4.720;2023-10-31T08:28:58;6.67;;;3.43;;
18435;SDS011;9346;52.006;4.720;2023-10-31T08:31:26;8.30;;;4.17;;
18435;SDS011;9346;52.006;4.720;2023-10-31T08:33:53;7.03;;;4.40;;
18435;SDS011;9346;52.006;4.720;2023-10-31T08:36:21;9.03;;;3.57;;
18435;SDS011;9346;52.006;4.720;2023-10-31T08:38:49;7.40;;;4.13;;
18435;SDS011;9346;52.006;4.720;2023-10-31T08:41:16;6.57;;;3.83;;
18435;SDS011;9346;52.006;4.720;2023-10-31T08:43:47;12.63;;;4.73;;
18435;SDS011;9346;52.006;4.720;2023-10-31T08:46:15;7.60;;;4.60;;
18435;SDS011;9346;52.006;4.720;2023-10-31T08:48:43;8.40;;;4.43;;
18435;SDS011;9346;52.006;4.720;2023-10-31T08:51:12;6.77;;;4.50;;
18435;SDS011;9346;52.006;4.720;2023-10-31T08:53:43;7.50;;;5.30;;
18435;SDS011;9346;52.006;4.720;2023-10-31T08:56:11;12.23;;;6.03;;
18435;SDS011;9346;52.006;4.720;2023-10-31T08:58:39;9.73;;;6.37;;
18435;SDS011;9346;52.006;4.720;2023-10-31T09:01:10;11.93;;;5.17;;
18435;SDS011;9346;52.006;4.720;2023-10-31T09:03:38;9.47;;;5.90;;
18435;SDS011;9346;52.006;4.720;2023-10-31T09:06:05;7.90;;;5.70;;
18435;SDS011;9346;52.006;4.720;2023-10-31T09:08:33;9.17;;;5.57;;
18435;SDS011;9346;52.006;4.720;2023-10-31T09:11:02;11.20;;;5.07;;
18435;SDS011;9346;52.006;4.720;2023-10-31T09:13:30;13.30;;;5.77;;
18435;SDS011;9346;52.006;4.720;2023-10-31T09:15:57;12.37;;;6.33;;
18435;SDS011;9346;52.006;4.720;2023-10-31T09:18:28;11.53;;;5.10;;
18435;SDS011;9346;52.006;4.720;2023-10-31T09:20:56;7.63;;;4.47;;
18435;SDS011;9346;52.006;4.720;2023-10-31T09:23:24;10.17;;;4.80;;
18435;SDS011;9346;52.006;4.720;2023-10-31T09:25:52;11.47;;;5.17;;
18435;SDS011;9346;52.006;4.720;2023-10-31T09:28:28;11.27;;;4.63;;
18435;SDS011;9346;52.006;4.720;2023-10-31T09:30:56;8.97;;;4.77;;
18435;SDS011;9346;52.006;4.720;2023-10-31T09:33:33;12.87;;;4.90;;
18435;SDS011;9346;52.006;4.720;2023-10-31T09:36:15;12.93;;;4.53;;
18435;SDS011;9346;52.006;4.720;2023-10-31T09:38:43;10.80;;;4.37;;
18435;SDS011;9346;52.006;4.720;2023-10-31T09:41:11;6.03;;;4.03;;
18435;SDS011;9346;52.006;4.720;2023-10-31T09:43:40;6.43;;;3.40;;
18435;SDS011;9346;52.006;4.720;2023-10-31T09:46:08;7.37;;;3.57;;
18435;SDS011;9346;52.006;4.720;2023-10-31T09:48:39;5.70;;;3.20;;
18435;SDS011;9346;52.006;4.720;2023-10-31T09:51:07;6.80;;;3.03;;
18435;SDS011;9346;52.006;4.720;2023-10-31T09:53:37;4.50;;;2.83;;
18435;SDS011;9346;52.006;4.720;2023-10-31T09:56:07;10.77;;;3.33;;
18435;SDS011;9346;52.006;4.720;2023-10-31T09:58:34;6.23;;;2.90;;
18435;SDS011;9346;52.006;4.720;2023-10-31T10:01:04;4.30;;;2.73;;
18435;SDS011;9346;52.006;4.720;2023-10-31T10:03:32;10.00;;;3.20;;
18435;SDS011;9346;52.006;4.720;2023-10-31T10:06:03;4.10;;;2.00;;
18435;SDS011;9346;52.006;4.720;2023-10-31T10:08:31;6.10;;;2.60;;
18435;SDS011;9346;52.006;4.720;2023-10-31T10:10:59;3.40;;;2.43;;
18435;SDS011;9346;52.006;4.720;2023-10-31T10:13:26;7.60;;;2.60;;
18435;SDS011;9346;52.006;4.720;2023-10-31T10:15:55;7.07;;;3.13;;
18435;SDS011;9346;52.006;4.720;2023-10-31T10:18:24;11.33;;;3.13;;
18435;SDS011;9346;52.006;4.720;2023-10-31T10:20:55;7.27;;;3.40;;
18435;SDS011;9346;52.006;4.720;2023-10-31T10:23:25;6.13;;;2.90;;
18435;SDS011;9346;52.006;4.720;2023-10-31T10:25:54;10.73;;;3.47;;
18435;SDS011;9346;52.006;4.720;2023-10-31T10:28:23;9.17;;;3.33;;
18435;SDS011;9346;52.006;4.720;2023-10-31T10:30:51;3.00;;;2.60;;
18435;SDS011;9346;52.006;4.720;2023-10-31T10:33:20;11.43;;;3.73;;
18435;SDS011;9346;52.006;4.720;2023-10-31T10:35:48;12.57;;;3.70;;
18435;SDS011;9346;52.006;4.720;2023-10-31T10:38:17;8.90;;;3.80;;
18435;SDS011;9346;52.006;4.720;2023-10-31T10:40:47;9.27;;;3.60;;
18435;SDS011;9346;52.006;4.720;2023-10-31T10:43:18;5.50;;;3.20;;
18435;SDS011;9346;52.006;4.720;2023-10-31T10:45:49;6.03;;;3.90;;
18435;SDS011;9346;52.006;4.720;2023-10-31T10:48:24;8.30;;;4.47;;
18435;SDS011;9346;52.006;4.720;2023-10-31T10:50:57;7.27;;;5.00;;
18435;SDS011;9346;52.006;4.720;2023-10-31T10:53:28;6.23;;;4.77;;
18435;SDS011;9346;52.006;4.720;2023-10-31T10:56:16;9.37;;;5.53;;
18435;SDS011;9346;52.006;4.720;2023-10-31T10:58:55;11.03;;;5.73;;
18435;SDS011;9346;52.006;4.720;2023-10-31T11:01:26;16.33;;;6.93;;
18435;SDS011;9346;52.006;4.720;2023-10-31T11:03:55;12.33;;;7.30;;
18435;SDS011;9346;52.006;4.720;2023-10-31T11:06:23;19.00;;;9.70;;
18435;SDS011;9346;52.006;4.720;2023-10-31T11:08:51;21.53;;;12.33;;
18435;SDS011;9346;52.006;4.720;2023-10-31T11:11:23;20.87;;;12.20;;
18435;SDS011;9346;52.006;4.720;2023-10-31T11:13:51;20.73;;;12.03;;
18435;SDS011;9346;52.006;4.720;2023-10-31T11:16:23;24.73;;;12.20;;
18435;SDS011;9346;52.006;4.720;2023-10-31T11:19:00;25.53;;;14.10;;
18435;SDS011;9346;52.006;4.720;2023-10-31T11:21:28;21.73;;;13.30;;
18435;SDS011;9346;52.006;4.720;2023-10-31T11:23:56;27.67;;;13.87;;
18435;SDS011;9346;52.006;4.720;2023-10-31T11:26:28;28.00;;;14.40;;
18435;SDS011;9346;52.006;4.720;2023-10-31T11:29:02;26.60;;;13.87;;
18435;SDS011;9346;52.006;4.720;2023-10-31T11:31:31;29.10;;;14.10;;
18435;SDS011;9346;52.006;4.720;2023-10-31T11:34:00;33.93;;;14.13;;
18435;SDS011;9346;52.006;4.720;2023-10-31T11:36:29;26.27;;;13.93;;
18435;SDS011;9346;52.006;4.720;2023-10-31T11:39:09;25.73;;;15.17;;
18435;SDS011;9346;52.006;4.720;2023-10-31T11:41:41;26.90;;;13.57;;
18435;SDS011;9346;52.006;4.720;2023-10-31T11:44:14;28.90;;;13.83;;
18435;SDS011;9346;52.006;4.720;2023-10-31T11:46:43;27.90;;;14.37;;
18435;SDS011;9346;52.006;4.720;2023-10-31T11:49:13;27.93;;;13.80;;
18435;SDS011;9346;52.006;4.720;2023-10-31T11:51:40;28.60;;;13.47;;
18435;SDS011;9346;52.006;4.720;2023-10-31T11:54:14;20.43;;;10.37;;
18435;SDS011;9346;52.006;4.720;2023-10-31T11:56:52;21.50;;;11.60;;
18435;SDS011;9346;52.006;4.720;2023-10-31T11:59:20;20.77;;;11.83;;
18435;SDS011;9346;52.006;4.720;2023-10-31T12:01:48;22.77;;;10.67;;
18435;SDS011;9346;52.006;4.720;2023-10-31T12:04:22;19.97;;;10.53;;
18435;SDS011;9346;52.006;4.720;2023-10-31T12:06:56;15.93;;;9.80;;
18435;SDS011;9346;52.006;4.720;2023-10-31T12:09:25;18.80;;;9.60;;
18435;SDS011;9346;52.006;4.720;2023-10-31T12:11:56;19.60;;;10.43;;
18435;SDS011;9346;52.006;4.720;2023-10-31T12:14:23;13.23;;;8.40;;
18435;SDS011;9346;52.006;4.720;2023-10-31T12:16:52;16.07;;;9.03;;
18435;SDS011;9346;52.006;4.720;2023-10-31T12:19:20;19.83;;;10.30;;
18435;SDS011;9346;52.006;4.720;2023-10-31T12:21:48;14.87;;;9.50;;
18435;SDS011;9346;52.006;4.720;2023-10-31T12:24:17;17.53;;;9.67;;
18435;SDS011;9346;52.006;4.720;2023-10-31T12:26:45;19.17;;;10.83;;
18435;SDS011;9346;52.006;4.720;2023-10-31T12:29:16;19.90;;;10.47;;
18435;SDS011;9346;52.006;4.720;2023-10-31T12:31:46;20.43;;;9.87;;
18435;SDS011;9346;52.006;4.720;2023-10-31T12:34:15;18.83;;;10.20;;
18435;SDS011;9346;52.006;4.720;2023-10-31T12:36:45;23.07;;;10.40;;
18435;SDS011;9346;52.006;4.720;2023-10-31T12:39:14;17.77;;;10.53;;
18435;SDS011;9346;52.006;4.720;2023-10-31T12:41:44;18.77;;;10.73;;
18435;SDS011;9346;52.006;4.720;2023-10-31T12:44:14;19.50;;;10.47;;
18435;SDS011;9346;52.006;4.720;2023-10-31T12:46:49;19.33;;;10.87;;
18435;SDS011;9346;52.006;4.720;2023-10-31T12:49:17;17.50;;;10.03;;
18435;SDS011;9346;52.006;4.720;2023-10-31T12:51:55;16.83;;;9.33;;
18435;SDS011;9346;52.006;4.720;2023-10-31T12:54:30;16.17;;;9.90;;
18435;SDS011;9346;52.006;4.720;2023-10-31T12:56:59;16.40;;;9.30;;
18435;SDS011;9346;52.006;4.720;2023-10-31T12:59:32;17.87;;;9.70;;
18435;SDS011;9346;52.006;4.720;2023-10-31T13:01:59;13.70;;;8.60;;
18435;SDS011;9346;52.006;4.720;2023-10-31T13:04:28;16.20;;;9.77;;
18435;SDS011;9346;52.006;4.720;2023-10-31T13:06:58;16.37;;;9.43;;
18435;SDS011;9346;52.006;4.720;2023-10-31T13:09:29;17.20;;;9.30;;
18435;SDS011;9346;52.006;4.720;2023-10-31T13:11:59;14.90;;;9.33;;
18435;SDS011;9346;52.006;4.720;2023-10-31T13:14:28;18.60;;;12.07;;
18435;SDS011;9346;52.006;4.720;2023-10-31T13:16:58;20.87;;;12.57;;
18435;SDS011;9346;52.006;4.720;2023-10-31T13:19:29;28.90;;;14.20;;
18435;SDS011;9346;52.006;4.720;2023-10-31T13:21:56;27.63;;;14.47;;
18435;SDS011;9346;52.006;4.720;2023-10-31T13:24:24;26.97;;;15.83;;
18435;SDS011;9346;52.006;4.720;2023-10-31T13:26:52;29.73;;;17.93;;
18435;SDS011;9346;52.006;4.720;2023-10-31T13:29:20;30.33;;;16.87;;
18435;SDS011;9346;52.006;4.720;2023-10-31T13:31:50;26.40;;;16.50;;
18435;SDS011;9346;52.006;4.720;2023-10-31T13:34:20;22.80;;;15.13;;
18435;SDS011;9346;52.006;4.720;2023-10-31T13:36:48;31.50;;;16.43;;
18435;SDS011;9346;52.006;4.720;2023-10-31T13:39:16;27.00;;;15.77;;
18435;SDS011;9346;52.006;4.720;2023-10-31T13:41:46;21.30;;;14.30;;
18435;SDS011;9346;52.006;4.720;2023-10-31T13:44:14;25.90;;;14.57;;
18435;SDS011;9346;52.006;4.720;2023-10-31T13:46:42;26.00;;;15.00;;
18435;SDS011;9346;52.006;4.720;2023-10-31T13:49:10;21.03;;;12.57;;
18435;SDS011;9346;52.006;4.720;2023-10-31T13:51:41;16.87;;;12.30;;
18435;SDS011;9346;52.006;4.720;2023-10-31T13:54:08;22.47;;;13.23;;
18435;SDS011;9346;52.006;4.720;2023-10-31T13:56:37;21.00;;;12.67;;
18435;SDS011;9346;52.006;4.720;2023-10-31T13:59:04;22.93;;;12.97;;
18435;SDS011;9346;52.006;4.720;2023-10-31T14:01:31;20.00;;;12.07;;
18435;SDS011;9346;52.006;4.720;2023-10-31T14:03:59;20.57;;;12.40;;
18435;SDS011;9346;52.006;4.720;2023-10-31T14:06:27;21.43;;;12.10;;
18435;SDS011;9346;52.006;4.720;2023-10-31T14:09:00;17.23;;;9.70;;
18435;SDS011;9346;52.006;4.720;2023-10-31T14:11:29;16.73;;;10.47;;
18435;SDS011;9346;52.006;4.720;2023-10-31T14:13:57;16.17;;;10.37;;
18435;SDS011;9346;52.006;4.720;2023-10-31T14:16:28;10.63;;;7.90;;
18435;SDS011;9346;52.006;4.720;2023-10-31T14:18:55;10.40;;;7.63;;
18435;SDS011;9346;52.006;4.720;2023-10-31T14:21:23;8.37;;;6.27;;
18435;SDS011;9346;52.006;4.720;2023-10-31T14:23:51;9.57;;;4.90;;
18435;SDS011;9346;52.006;4.720;2023-10-31T14:26:22;6.47;;;4.37;;
18435;SDS011;9346;52.006;4.720;2023-10-31T14:28:50;9.20;;;5.83;;
18435;SDS011;9346;52.006;4.720;2023-10-31T14:31:18;11.53;;;5.03;;
18435;SDS011;9346;52.006;4.720;2023-10-31T14:33:45;17.67;;;5.93;;
18435;SDS011;9346;52.006;4.720;2023-10-31T14:36:14;12.23;;;6.13;;
18435;SDS011;9346;52.006;4.720;2023-10-31T14:38:42;7.70;;;5.37;;
18435;SDS011;9346;52.006;4.720;2023-10-31T14:41:10;10.00;;;5.77;;
18435;SDS011;9346;52.006;4.720;2023-10-31T14:43:42;9.47;;;5.83;;
18435;SDS011;9346;52.006;4.720;2023-10-31T14:46:10;9.80;;;5.93;;
18435;SDS011;9346;52.006;4.720;2023-10-31T14:48:37;8.47;;;5.27;;
18435;SDS011;9346;52.006;4.720;2023-10-31T14:51:05;11.20;;;5.87;;
18435;SDS011;9346;52.006;4.720;2023-10-31T14:53:33;11.37;;;5.93;;
18435;SDS011;9346;52.006;4.720;2023-10-31T14:56:01;11.00;;;6.13;;
18435;SDS011;9346;52.006;4.720;2023-10-31T14:58:28;12.03;;;6.13;;
18435;SDS011;9346;52.006;4.720;2023-10-31T15:00:58;9.33;;;5.80;;